createdAt,value
2022-10-12T00:01:21.877Z,3.00
2022-10-12T00:03:48.618Z,3.20
2022-10-12T00:06:18.254Z,2.80
2022-10-12T00:08:45.624Z,2.35
2022-10-12T00:11:15.361Z,2.25
2022-10-12T00:13:41.833Z,2.45
2022-10-12T00:16:12.037Z,2.08
2022-10-12T00:18:38.707Z,2.40
2022-10-12T00:21:13.383Z,2.15
2022-10-12T00:23:40.623Z,1.92
2022-10-12T00:26:09.399Z,2.15
2022-10-12T00:28:36.472Z,1.65
2022-10-12T00:31:10.787Z,2.50
2022-10-12T00:33:40.931Z,2.28
2022-10-12T00:36:15.222Z,2.00
2022-10-12T00:38:41.741Z,2.47
2022-10-12T00:41:08.280Z,1.95
2022-10-12T00:43:39.084Z,1.88
2022-10-12T00:46:18.410Z,1.75
2022-10-12T00:48:47.307Z,1.75
2022-10-12T00:51:14.835Z,2.55
2022-10-12T00:53:46.280Z,1.90
2022-10-12T00:56:18.696Z,1.90
2022-10-12T00:58:46.321Z,2.15
2022-10-12T01:01:12.926Z,1.70
2022-10-12T01:03:39.661Z,1.95
2022-10-12T01:06:07.322Z,2.42
2022-10-12T01:08:33.958Z,2.47
2022-10-12T01:11:00.562Z,2.08
2022-10-12T01:13:27.151Z,1.73
2022-10-12T01:15:59.144Z,2.10
2022-10-12T01:18:44.065Z,2.05
2022-10-12T01:21:23.088Z,1.63
2022-10-12T01:24:06.158Z,2.42
2022-10-12T01:27:01.956Z,2.35
2022-10-12T01:29:47.585Z,1.80
2022-10-12T01:32:22.666Z,2.40
2022-10-12T01:35:09.371Z,1.80
2022-10-12T01:37:49.819Z,2.47
2022-10-12T01:40:21.350Z,2.13
2022-10-12T01:42:48.369Z,1.70
2022-10-12T01:45:18.306Z,1.92
2022-10-12T01:47:48.678Z,2.92
2022-10-12T01:50:16.134Z,2.10
2022-10-12T01:53:08.301Z,2.30
2022-10-12T01:56:19.790Z,2.03
2022-10-12T01:58:59.241Z,1.80
2022-10-12T02:01:32.984Z,2.25
2022-10-12T02:04:18.990Z,1.88
2022-10-12T02:06:49.834Z,2.10
2022-10-12T02:09:29.363Z,2.20
2022-10-12T02:11:58.614Z,2.13
2022-10-12T02:14:33.360Z,2.17
2022-10-12T02:17:01.197Z,2.47
2022-10-12T02:19:35.366Z,1.90
2022-10-12T02:22:03.105Z,2.08
2022-10-12T02:24:30.968Z,2.53
2022-10-12T02:26:58.364Z,2.20
2022-10-12T02:29:28.981Z,2.50
2022-10-12T02:32:10.817Z,2.05
2022-10-12T02:35:01.991Z,2.30
2022-10-12T02:38:08.073Z,1.70
2022-10-12T02:40:59.031Z,1.92
2022-10-12T02:43:33.019Z,2.05
2022-10-12T02:46:00.800Z,2.10
2022-10-12T02:48:29.106Z,2.47
2022-10-12T02:50:57.081Z,1.77
2022-10-12T02:53:24.476Z,2.10
2022-10-12T02:55:53.021Z,2.33
2022-10-12T02:58:19.703Z,1.80
2022-10-12T03:00:46.240Z,1.67
2022-10-12T03:03:12.862Z,3.13
2022-10-12T03:05:40.159Z,2.33
2022-10-12T03:08:06.620Z,2.20
2022-10-12T03:10:33.067Z,2.58
2022-10-12T03:12:59.556Z,2.33
2022-10-12T03:15:26.020Z,2.70
2022-10-12T03:17:52.525Z,2.33
2022-10-12T03:20:19.128Z,2.38
2022-10-12T03:22:45.569Z,1.75
2022-10-12T03:25:12.059Z,1.80
2022-10-12T03:27:40.645Z,3.22
2022-10-12T03:30:07.994Z,2.08
2022-10-12T03:32:34.440Z,2.15
2022-10-12T03:35:00.937Z,2.60
2022-10-12T03:37:27.371Z,1.35
2022-10-12T03:39:53.828Z,1.95
2022-10-12T03:42:20.360Z,1.40
2022-10-12T03:44:46.828Z,1.83
2022-10-12T03:47:13.351Z,1.88
2022-10-12T03:49:39.834Z,2.35
2022-10-12T03:52:06.520Z,2.55
2022-10-12T03:54:33.003Z,2.63
2022-10-12T03:57:00.272Z,2.95
2022-10-12T03:59:26.688Z,2.38
2022-10-12T04:01:53.586Z,2.42
2022-10-12T04:04:20.145Z,2.90
2022-10-12T04:06:46.899Z,2.25
2022-10-12T04:09:13.497Z,2.70
2022-10-12T04:11:41.290Z,2.85
2022-10-12T04:14:07.806Z,2.40
2022-10-12T04:16:34.289Z,2.30
2022-10-12T04:19:01.502Z,2.30
2022-10-12T04:21:29.348Z,2.08
2022-10-12T04:23:55.815Z,2.63
2022-10-12T04:26:22.283Z,3.58
2022-10-12T04:28:48.818Z,3.20
2022-10-12T04:31:15.303Z,2.90
2022-10-12T04:33:41.805Z,3.58
2022-10-12T04:36:08.403Z,3.03
2022-10-12T04:38:35.365Z,3.40
2022-10-12T04:41:02.659Z,3.05
2022-10-12T04:43:29.220Z,3.65
2022-10-12T04:45:59.931Z,4.05
2022-10-12T04:48:26.993Z,3.80
2022-10-12T04:50:53.443Z,3.42
2022-10-12T04:53:19.905Z,3.65
2022-10-12T04:55:46.412Z,3.15
2022-10-12T04:58:13.685Z,3.67
2022-10-12T05:00:40.126Z,3.38
2022-10-12T05:03:07.510Z,3.60
2022-10-12T05:05:38.583Z,3.80
2022-10-12T05:08:05.151Z,3.33
2022-10-12T05:10:32.179Z,3.50
2022-10-12T05:12:58.749Z,3.28
2022-10-12T05:15:25.484Z,3.63
2022-10-12T05:17:51.957Z,3.97
2022-10-12T05:20:18.468Z,4.63
2022-10-12T05:22:44.939Z,3.28
2022-10-12T05:25:11.543Z,3.58
2022-10-12T05:27:38.330Z,3.95
2022-10-12T05:30:06.470Z,3.67
2022-10-12T05:32:32.976Z,3.92
2022-10-12T05:34:59.508Z,3.28
2022-10-12T05:37:26.000Z,3.97
2022-10-12T05:39:52.579Z,3.45
2022-10-12T05:42:19.187Z,3.53
2022-10-12T05:44:45.687Z,3.72
2022-10-12T05:47:12.429Z,3.80
2022-10-12T05:49:38.858Z,3.70
2022-10-12T05:52:05.319Z,3.65
2022-10-12T05:54:32.575Z,4.13
2022-10-12T05:56:59.013Z,3.47
2022-10-12T05:59:25.477Z,3.53
2022-10-12T06:01:52.083Z,4.20
2022-10-12T06:04:18.672Z,3.33
2022-10-12T06:06:45.222Z,3.45
2022-10-12T06:09:12.969Z,3.75
2022-10-12T06:11:39.692Z,3.72
2022-10-12T06:14:06.181Z,3.85
2022-10-12T06:16:33.051Z,3.75
2022-10-12T06:18:59.899Z,3.50
2022-10-12T06:21:33.400Z,3.95
2022-10-12T06:24:00.629Z,3.25
2022-10-12T06:26:27.113Z,3.72
2022-10-12T06:28:53.645Z,3.75
2022-10-12T06:31:21.562Z,3.63
2022-10-12T06:33:50.226Z,3.28
2022-10-12T06:36:16.844Z,3.53
2022-10-12T06:38:43.313Z,2.95
2022-10-12T06:41:10.033Z,3.40
2022-10-12T06:43:36.508Z,3.53
2022-10-12T06:46:03.203Z,3.80
2022-10-12T06:48:31.873Z,3.53
2022-10-12T06:50:58.558Z,3.90
2022-10-12T06:53:30.965Z,2.95
2022-10-12T06:55:57.661Z,2.80
2022-10-12T06:58:24.207Z,3.10
2022-10-12T07:00:51.486Z,3.55
2022-10-12T07:03:18.007Z,3.35
2022-10-12T07:05:44.428Z,3.35
2022-10-12T07:08:11.919Z,3.97
2022-10-12T07:10:38.489Z,4.32
2022-10-12T07:13:05.154Z,4.50
2022-10-12T07:15:34.990Z,4.55
2022-10-12T07:18:01.440Z,4.00
2022-10-12T07:20:27.866Z,4.45
2022-10-12T07:22:54.680Z,4.05
2022-10-12T07:25:22.429Z,4.32
2022-10-12T07:27:49.518Z,3.63
2022-10-12T07:30:16.129Z,3.75
2022-10-12T07:32:44.538Z,3.97
2022-10-12T07:35:10.977Z,3.83
2022-10-12T07:37:37.803Z,4.35
2022-10-12T07:40:04.767Z,3.38
2022-10-12T07:42:31.250Z,3.53
2022-10-12T07:44:57.795Z,4.00
2022-10-12T07:47:24.250Z,4.15
2022-10-12T07:49:50.717Z,5.10
2022-10-12T07:52:17.224Z,3.58
2022-10-12T07:54:43.759Z,3.95
2022-10-12T07:57:10.239Z,3.38
2022-10-12T07:59:38.141Z,4.07
2022-10-12T08:02:04.718Z,3.40
2022-10-12T08:04:31.304Z,4.22
2022-10-12T08:06:59.714Z,4.35
2022-10-12T08:09:29.197Z,3.92
2022-10-12T08:11:56.480Z,3.83
2022-10-12T08:14:23.157Z,4.47
2022-10-12T08:16:49.612Z,3.65
2022-10-12T08:19:16.148Z,4.35
2022-10-12T08:21:44.488Z,4.72
2022-10-12T08:24:11.776Z,4.93
2022-10-12T08:26:39.002Z,4.13
2022-10-12T08:29:06.800Z,4.15
2022-10-12T08:31:33.267Z,3.58
2022-10-12T08:34:00.240Z,4.18
2022-10-12T08:36:27.354Z,3.50
2022-10-12T08:38:55.217Z,4.07
2022-10-12T08:41:47.740Z,3.25
2022-10-12T08:44:41.820Z,3.70
2022-10-12T08:47:32.430Z,4.38
2022-10-12T08:50:00.412Z,3.40
2022-10-12T08:52:31.897Z,3.65
2022-10-12T08:55:17.627Z,4.05
2022-10-12T08:57:47.667Z,3.60
2022-10-12T09:00:17.762Z,4.05
2022-10-12T09:03:41.059Z,3.17
2022-10-12T09:06:22.116Z,3.33
2022-10-12T09:08:54.401Z,3.88
2022-10-12T09:11:45.614Z,4.20
2022-10-12T09:14:18.669Z,2.72
2022-10-12T09:16:47.132Z,2.90
2022-10-12T09:19:19.099Z,2.85
2022-10-12T09:21:47.712Z,2.40
2022-10-12T09:24:19.158Z,2.78
2022-10-12T09:26:50.034Z,3.60
2022-10-12T09:29:23.790Z,2.63
2022-10-12T09:32:09.078Z,2.80
2022-10-12T09:34:35.676Z,3.17
2022-10-12T09:37:03.608Z,2.63
2022-10-12T09:39:36.841Z,3.22
2022-10-12T09:42:03.551Z,3.03
2022-10-12T09:44:36.522Z,2.97
2022-10-12T09:47:06.816Z,4.35
2022-10-12T09:49:43.725Z,3.10
2022-10-12T09:52:11.643Z,3.65
2022-10-12T09:54:46.805Z,2.92
2022-10-12T09:57:20.813Z,2.95
2022-10-12T09:59:47.687Z,3.47
2022-10-12T10:02:25.934Z,2.92
2022-10-12T10:04:53.634Z,2.75
2022-10-12T10:07:25.055Z,2.30
2022-10-12T10:10:19.215Z,2.03
2022-10-12T10:13:03.024Z,3.92
2022-10-12T10:15:33.774Z,1.77
2022-10-12T10:18:06.011Z,1.70
2022-10-12T10:20:39.444Z,2.33
2022-10-12T10:23:06.193Z,2.85
2022-10-12T10:25:33.394Z,3.35
2022-10-12T10:28:24.850Z,2.30
2022-10-12T10:31:27.645Z,2.25
2022-10-12T10:34:17.831Z,1.98
2022-10-12T10:36:49.587Z,2.00
2022-10-12T10:39:22.105Z,2.33
2022-10-12T10:41:49.577Z,2.20
2022-10-12T10:44:22.007Z,1.90
2022-10-12T10:46:49.027Z,1.83
2022-10-12T10:49:26.674Z,2.28
2022-10-12T10:51:57.844Z,2.28
2022-10-12T10:54:24.248Z,1.63
2022-10-12T10:57:11.504Z,1.90
2022-10-12T11:00:19.437Z,1.50
2022-10-12T11:02:51.101Z,1.50
2022-10-12T11:05:30.288Z,1.83
2022-10-12T11:07:58.905Z,2.28
2022-10-12T11:10:36.720Z,1.55
2022-10-12T11:13:20.895Z,1.58
2022-10-12T11:15:54.898Z,2.08
2022-10-12T11:18:36.932Z,1.58
2022-10-12T11:21:35.704Z,1.90
2022-10-12T11:24:13.496Z,1.48
2022-10-12T11:27:15.736Z,1.88
2022-10-12T11:29:42.380Z,1.90
2022-10-12T11:32:36.622Z,2.13
2022-10-12T11:35:06.374Z,2.10
2022-10-12T11:37:52.254Z,2.17
2022-10-12T11:40:47.686Z,2.10
2022-10-12T11:43:23.182Z,1.95
2022-10-12T11:45:55.140Z,1.40
2022-10-12T11:48:33.345Z,1.45
2022-10-12T11:51:03.850Z,1.98
2022-10-12T11:53:49.544Z,1.88
2022-10-12T11:56:43.275Z,1.60
2022-10-12T11:59:15.915Z,1.55
2022-10-12T12:02:05.827Z,1.40
2022-10-12T12:04:43.703Z,1.50
2022-10-12T12:07:23.951Z,1.48
2022-10-12T12:09:51.606Z,2.05
2022-10-12T12:12:19.893Z,1.77
2022-10-12T12:14:59.538Z,1.50
2022-10-12T12:17:32.210Z,1.92
2022-10-12T12:20:00.902Z,1.80
2022-10-12T12:22:30.075Z,1.95
2022-10-12T12:25:12.747Z,1.25
2022-10-12T12:27:53.558Z,1.50
2022-10-12T12:30:22.783Z,1.70
2022-10-12T12:32:52.820Z,1.30
2022-10-12T12:35:29.104Z,1.77
2022-10-12T12:38:07.800Z,1.90
2022-10-12T12:40:35.784Z,1.70
2022-10-12T12:43:29.073Z,1.83
2022-10-12T12:45:59.985Z,2.17
2022-10-12T12:48:52.747Z,1.63
2022-10-12T12:51:51.739Z,1.58
2022-10-12T12:54:20.630Z,1.23
2022-10-12T12:57:14.503Z,1.00
2022-10-12T13:00:03.371Z,1.50
2022-10-12T13:02:43.973Z,1.20
2022-10-12T13:05:32.283Z,1.58
2022-10-12T13:08:18.443Z,1.20
2022-10-12T13:11:22.423Z,1.73
2022-10-12T13:13:58.077Z,1.80
2022-10-12T13:17:09.932Z,1.83
2022-10-12T13:19:21.935Z,1.23
2022-10-12T13:21:50.693Z,1.05
2022-10-12T13:24:25.507Z,1.50
2022-10-12T13:26:55.639Z,1.80
2022-10-12T13:29:29.402Z,1.50
2022-10-12T13:31:59.348Z,1.33
2022-10-12T13:34:32.307Z,1.45
2022-10-12T13:37:04.433Z,1.52
2022-10-12T13:39:38.704Z,2.25
2022-10-12T13:42:05.538Z,1.73
2022-10-12T13:44:35.014Z,1.77
2022-10-12T13:47:25.630Z,1.63
2022-10-12T13:49:52.654Z,1.10
2022-10-12T13:52:27.261Z,1.45
2022-10-12T13:54:58.888Z,1.40
2022-10-12T13:57:42.704Z,1.40
2022-10-12T14:00:22.590Z,1.98
2022-10-12T14:02:56.921Z,1.60
2022-10-12T14:05:25.558Z,2.90
2022-10-12T14:07:53.704Z,1.52
2022-10-12T14:10:38.045Z,2.08
2022-10-12T14:13:05.270Z,2.13
2022-10-12T14:15:37.165Z,1.98
2022-10-12T14:18:04.584Z,1.50
2022-10-12T14:20:35.970Z,1.13
2022-10-12T14:23:04.549Z,1.23
2022-10-12T14:25:32.020Z,1.15
2022-10-12T14:28:01.080Z,1.33
2022-10-12T14:30:36.707Z,1.52
2022-10-12T14:33:30.220Z,1.98
2022-10-12T14:36:25.977Z,1.55
2022-10-12T14:38:53.356Z,1.90
2022-10-12T14:41:28.737Z,1.80
2022-10-12T14:44:11.008Z,1.70
2022-10-12T14:47:01.091Z,1.65
2022-10-12T14:49:35.486Z,1.60
2022-10-12T14:52:02.023Z,1.48
2022-10-12T14:54:28.516Z,2.10
2022-10-12T14:56:55.158Z,1.27
2022-10-12T14:59:21.646Z,1.70
2022-10-12T15:01:51.474Z,1.60
2022-10-12T15:04:18.178Z,1.67
2022-10-12T15:06:49.800Z,1.77
2022-10-12T15:09:17.394Z,1.52
2022-10-12T15:11:43.861Z,1.52
2022-10-12T15:14:11.796Z,1.73
2022-10-12T15:16:39.070Z,1.25
2022-10-12T15:19:05.548Z,1.63
2022-10-12T15:21:32.052Z,1.55
2022-10-12T15:23:58.494Z,1.83
2022-10-12T15:26:24.930Z,1.98
2022-10-12T15:28:52.313Z,1.27
2022-10-12T15:31:19.299Z,1.60
2022-10-12T15:33:46.294Z,1.75
2022-10-12T15:36:12.921Z,1.60
2022-10-12T15:38:39.461Z,2.10
2022-10-12T15:41:06.268Z,1.35
2022-10-12T15:43:35.658Z,1.42
2022-10-12T15:46:04.750Z,2.00
2022-10-12T15:48:31.203Z,1.45
2022-10-12T15:50:58.984Z,2.00
2022-10-12T15:53:26.329Z,1.83
2022-10-12T15:55:54.406Z,2.15
2022-10-12T15:58:21.242Z,1.55
2022-10-12T16:00:47.821Z,1.20
2022-10-12T16:03:19.073Z,2.15
2022-10-12T16:05:48.010Z,1.60
2022-10-12T16:08:15.512Z,1.52
2022-10-12T16:10:42.168Z,1.70
2022-10-12T16:13:11.484Z,1.67
2022-10-12T16:15:38.301Z,1.77
2022-10-12T16:18:05.249Z,1.17
2022-10-12T16:20:33.392Z,1.65
2022-10-12T16:23:01.254Z,1.60
2022-10-12T16:25:28.199Z,1.60
2022-10-12T16:27:56.093Z,1.30
2022-10-12T16:30:24.000Z,1.27
2022-10-12T16:32:50.600Z,2.08
2022-10-12T16:35:17.535Z,1.58
2022-10-12T16:37:44.176Z,1.77
2022-10-12T16:40:11.756Z,1.75
2022-10-12T16:42:39.600Z,1.85
2022-10-12T16:45:06.718Z,1.50
2022-10-12T16:47:33.719Z,1.85
2022-10-12T16:50:00.436Z,2.30
2022-10-12T16:52:26.877Z,1.95
2022-10-12T16:54:54.571Z,2.05
2022-10-12T16:57:21.856Z,2.22
2022-10-12T16:59:48.659Z,2.90
2022-10-12T17:02:17.220Z,2.30
2022-10-12T17:04:44.193Z,2.80
2022-10-12T17:07:10.752Z,2.53
2022-10-12T17:09:37.267Z,2.70
2022-10-12T17:12:05.244Z,2.97
2022-10-12T17:14:31.805Z,3.25
2022-10-12T17:16:58.310Z,2.53
2022-10-12T17:19:33.131Z,2.65
2022-10-12T17:22:01.105Z,3.05
2022-10-12T17:24:29.410Z,2.58
2022-10-12T17:26:56.669Z,3.10
2022-10-12T17:29:25.206Z,2.47
2022-10-12T17:31:52.679Z,3.13
2022-10-12T17:34:24.794Z,3.20
2022-10-12T17:36:54.367Z,2.92
2022-10-12T17:39:21.689Z,2.75
2022-10-12T17:41:50.351Z,3.53
2022-10-12T17:44:17.079Z,3.20
2022-10-12T17:46:44.154Z,2.72
2022-10-12T17:49:15.278Z,3.83
2022-10-12T17:51:42.501Z,3.22
2022-10-12T17:54:09.902Z,2.92
2022-10-12T17:56:36.493Z,3.17
2022-10-12T17:59:04.456Z,3.08
2022-10-12T18:01:32.518Z,3.05
2022-10-12T18:04:01.358Z,4.15
2022-10-12T18:06:28.941Z,3.65
2022-10-12T18:08:56.750Z,3.38
2022-10-12T18:11:24.219Z,4.35
2022-10-12T18:13:53.200Z,3.78
2022-10-12T18:16:24.098Z,4.55
2022-10-12T18:18:52.658Z,5.18
2022-10-12T18:21:21.922Z,4.13
2022-10-12T18:23:48.495Z,4.70
2022-10-12T18:26:19.772Z,4.85
2022-10-12T18:28:47.225Z,4.60
2022-10-12T18:31:27.352Z,5.00
2022-10-12T18:33:55.085Z,4.93
2022-10-12T18:36:21.645Z,5.60
2022-10-12T18:38:48.287Z,5.03
2022-10-12T18:41:17.968Z,5.10
2022-10-12T18:43:44.724Z,5.20
2022-10-12T18:46:17.386Z,5.30
2022-10-12T18:48:43.957Z,5.57
2022-10-12T18:51:26.156Z,5.03
2022-10-12T18:53:52.821Z,5.50
2022-10-12T18:56:19.938Z,4.88
2022-10-12T18:58:48.313Z,4.93
2022-10-12T19:01:21.443Z,5.43
2022-10-12T19:03:48.793Z,4.82
2022-10-12T19:06:21.230Z,4.25
2022-10-12T19:08:48.313Z,4.35
2022-10-12T19:11:15.809Z,4.88
2022-10-12T19:13:42.345Z,4.85
2022-10-12T19:16:16.420Z,4.75
2022-10-12T19:18:43.074Z,4.72
2022-10-12T19:21:12.395Z,3.92
2022-10-12T19:23:39.444Z,4.25
2022-10-12T19:26:08.009Z,4.28
2022-10-12T19:28:34.925Z,5.53
2022-10-12T19:31:03.861Z,4.50
2022-10-12T19:33:30.742Z,5.40
2022-10-12T19:35:57.200Z,4.90
2022-10-12T19:38:24.015Z,5.25
2022-10-12T19:40:50.967Z,5.43
2022-10-12T19:43:17.543Z,4.85
2022-10-12T19:45:44.388Z,5.70
2022-10-12T19:48:11.701Z,5.20
2022-10-12T19:50:38.261Z,4.45
2022-10-12T19:53:05.617Z,4.30
2022-10-12T19:55:38.951Z,4.25
2022-10-12T19:58:07.262Z,4.65
2022-10-12T20:00:37.330Z,6.35
2022-10-12T20:03:04.593Z,4.22
2022-10-12T20:05:31.158Z,4.28
2022-10-12T20:07:57.664Z,4.60
2022-10-12T20:10:24.193Z,4.05
2022-10-12T20:12:51.633Z,4.13
2022-10-12T20:15:18.171Z,4.07
2022-10-12T20:17:44.660Z,4.13
2022-10-12T20:20:12.208Z,3.80
2022-10-12T20:22:38.739Z,4.90
2022-10-12T20:25:09.427Z,4.75
2022-10-12T20:27:36.722Z,4.55
2022-10-12T20:30:04.815Z,3.63
2022-10-12T20:32:31.354Z,4.05
2022-10-12T20:34:57.791Z,3.47
2022-10-12T20:37:24.335Z,3.72
2022-10-12T20:39:51.741Z,3.58
2022-10-12T20:42:21.746Z,3.38
2022-10-12T20:44:48.704Z,3.00
2022-10-12T20:47:15.558Z,3.25
2022-10-12T20:49:42.765Z,3.65
2022-10-12T20:52:09.484Z,4.72
2022-10-12T20:54:38.483Z,3.42
2022-10-12T20:57:05.524Z,3.45
2022-10-12T20:59:34.457Z,3.22
2022-10-12T21:02:01.017Z,3.80
2022-10-12T21:04:28.433Z,3.30
2022-10-12T21:06:54.964Z,2.97
2022-10-12T21:09:21.483Z,3.22
2022-10-12T21:11:48.514Z,3.67
2022-10-12T21:14:14.984Z,3.80
2022-10-12T21:16:41.590Z,4.20
2022-10-12T21:19:08.531Z,3.55
2022-10-12T21:21:35.012Z,3.35
2022-10-12T21:24:01.887Z,3.67
2022-10-12T21:26:30.240Z,3.63
2022-10-12T21:28:58.374Z,3.40
2022-10-12T21:31:28.301Z,4.15
2022-10-12T21:34:01.878Z,3.20
2022-10-12T21:36:29.412Z,3.38
2022-10-12T21:38:56.370Z,3.47
2022-10-12T21:41:24.761Z,3.85
2022-10-12T21:43:52.198Z,3.03
2022-10-12T21:46:23.215Z,3.15
2022-10-12T21:48:50.515Z,3.28
2022-10-12T21:51:18.135Z,3.60
2022-10-12T21:53:44.576Z,3.42
2022-10-12T21:56:17.558Z,3.78
2022-10-12T21:58:44.196Z,3.50
2022-10-12T22:01:14.030Z,2.90
2022-10-12T22:03:41.579Z,3.65
2022-10-12T22:06:15.579Z,3.08
2022-10-12T22:08:42.564Z,3.55
2022-10-12T22:11:10.674Z,4.13
2022-10-12T22:13:38.157Z,4.13
2022-10-12T22:16:09.500Z,2.95
2022-10-12T22:18:36.041Z,3.72
2022-10-12T22:21:15.505Z,3.28
2022-10-12T22:23:42.863Z,3.22
2022-10-12T22:26:13.436Z,3.80
2022-10-12T22:28:40.019Z,3.88
2022-10-12T22:31:08.014Z,3.40
2022-10-12T22:33:35.635Z,4.78
2022-10-12T22:36:03.599Z,3.53
2022-10-12T22:38:30.046Z,4.20
2022-10-12T22:40:58.409Z,3.95
2022-10-12T22:43:26.581Z,3.38
2022-10-12T22:45:56.032Z,3.78
2022-10-12T22:48:23.219Z,3.67
2022-10-12T22:50:50.798Z,4.63
2022-10-12T22:53:18.680Z,3.13
2022-10-12T22:55:45.363Z,3.72
2022-10-12T22:58:11.872Z,3.42
2022-10-12T23:00:38.764Z,3.35
2022-10-12T23:03:05.259Z,3.88
2022-10-12T23:05:32.649Z,4.05
2022-10-12T23:07:59.121Z,3.67
2022-10-12T23:10:25.790Z,3.83
2022-10-12T23:12:52.307Z,3.80
2022-10-12T23:15:18.736Z,3.75
2022-10-12T23:17:45.231Z,3.78
2022-10-12T23:20:11.987Z,4.40
2022-10-12T23:22:38.557Z,3.70
2022-10-12T23:25:05.535Z,4.43
2022-10-12T23:27:32.034Z,4.82
2022-10-12T23:29:58.542Z,4.47
2022-10-12T23:32:25.051Z,4.38
2022-10-12T23:34:54.687Z,4.43
2022-10-12T23:37:21.121Z,3.90
2022-10-12T23:39:47.904Z,3.90
2022-10-12T23:42:14.372Z,3.83
2022-10-12T23:44:40.801Z,3.45
2022-10-12T23:47:07.258Z,3.97
2022-10-12T23:49:33.821Z,3.75
2022-10-12T23:52:03.269Z,3.45
2022-10-12T23:54:29.721Z,3.28
2022-10-12T23:56:56.290Z,3.50
2022-10-12T23:59:22.795Z,4.22
